Saturday, August 18, 2018, 3:44 PM EDT
Back to Local

KAUG, Augusta State Airport

Location: Augusta, ME, United States Lat: 44.317
Local Time: 3:44 PM EDT (19:44 GMT) Lon: -69.8
Time Zone: US/Eastern Elev: 351 ft

Show me the last for .
Show Decoded

2018-08-18 14:53 METAR KAUG 181853Z AUTO 01010G16KT 10SM FEW013 OVC024 21/18 A2982 RMK AO2
                 RAB00E17 SLP097 P0000 T02110183 =
2018-08-18 14:20 METAR KAUG 181820Z AUTO 36010KT 10SM SCT009 OVC018 19/18 A2982 RMK AO2 RAB00E17
                 P0000 T01940178 =
2018-08-18 13:53 METAR KAUG 181753Z AUTO 03011KT 8SM OVC009 20/18 A2981 RMK AO2 CIG 006V012
                 SLP094 60006 T02000183 10239 20200 53013 =
2018-08-18 13:30 METAR KAUG 181730Z AUTO 03012G22KT 10SM BKN007 OVC015 21/19 A2980 RMK AO2
                 T02060194 =
2018-08-18 13:18 METAR KAUG 181718Z AUTO 03016G21KT 10SM FEW006 OVC015 22/20 A2979 RMK AO2
                 T02170200 =
2018-08-18 12:53 METAR KAUG 181653Z AUTO 36008KT 10SM BKN012 BKN017 OVC049 23/21 A2978 RMK AO2
                 RAE15 SLP084 P0003 T02330211 =
2018-08-18 12:38 METAR KAUG 181638Z AUTO 01008KT 10SM BKN012 BKN050 BKN100 23/22 A2978 RMK AO2
                 RAE15 P0003 T02330217 =
2018-08-18 12:14 METAR KAUG 181614Z AUTO 02004KT 10SM -RA FEW014 BKN046 OVC090 23/21 A2978 RMK
                 AO2 P0003 T02280211 =
2018-08-18 12:02 METAR KAUG 181602Z AUTO 01006KT 2 1/2SM +RA BR SCT013 BKN033 OVC070 22/21 A2978
                 RMK AO2 P0003 T02220211 =
2018-08-18 11:53 METAR KAUG 181553Z AUTO 01010KT 10SM -RA SCT012 BKN020 OVC070 23/21 A2978 RMK
                 AO2 RAE04B48 SLP084 P0000 T02330211 =
2018-08-18 11:41 METAR KAUG 181541Z AUTO 36007KT 10SM SCT012 BKN032 OVC070 24/22 A2978 RMK AO2
                 RAE04 P0000 T02390217 =
2018-08-18 11:20 METAR KAUG 181520Z AUTO 31006KT 10SM FEW008 BKN013 OVC060 23/22 A2978 RMK AO2
                 RAE04 P0000 T02330217 =
2018-08-18 11:13 METAR KAUG 181513Z AUTO 33006KT 10SM BKN010 BKN027 OVC060 23/21 A2978 RMK AO2
                 RAE04 CIG 006V015 P0000 T02280211 =
2018-08-18 11:03 METAR KAUG 181503Z AUTO 29006KT 10SM -RA SCT008 BKN060 OVC110 23/22 A2978 RMK
                 AO2 P0000 T02280217 =
2018-08-18 10:53 METAR KAUG 181453Z AUTO 31007KT 9SM -RA SCT060 OVC110 23/22 A2977 RMK AO2
                 RAB1357 SLP080 P0002 60003 T02280217 53003 =
2018-08-18 09:58 METAR KAUG 181358Z AUTO VRB06KT 9SM -RA SCT008 BKN070 BKN100 23/22 A2976 RMK AO2
                 RAB57 P0000 T02330217 =
2018-08-18 09:53 METAR KAUG 181353Z AUTO 27005KT 9SM BKN008 BKN070 23/22 A2976 RMK AO2 CIG
                 005V012 SLP077 T02280217 =
2018-08-18 08:53 METAR KAUG 181253Z AUTO 27004KT 8SM BKN007 OVC011 22/22 A2976 RMK AO2 RAE22 CIG
                 005V009 SLP076 P0001 T02220217 =
2018-08-18 08:13 METAR KAUG 181213Z AUTO 21004KT 4SM -RA BR BKN005 OVC046 22/21 A2976 RMK AO2
                 P0001 T02170211 =
2018-08-18 08:06 METAR KAUG 181206Z AUTO 20003KT 2 1/2SM -RA BR BKN005 OVC048 22/21 A2976 RMK AO2
                 P0001 T02170211 =
2018-08-18 07:53 METAR KAUG 181153Z AUTO 20003KT 5SM -RA BR FEW005 FEW037 OVC048 22/21 A2976 RMK
                 AO2 SLP078 P0001 60002 70047 T02170211 10217 20211 58001 =
2018-08-18 07:35 METAR KAUG 181135Z AUTO VRB04KT 4SM -RA BR FEW006 BKN037 OVC050 22/21 A2977 RMK
                 AO2 P0001 T02170211 =
2018-08-18 07:12 METAR KAUG 181112Z AUTO VRB04KT 3SM -RA BR OVC015 21/21 A2977 RMK AO2 P0000
                 T02110211 =
2018-08-18 07:01 METAR KAUG 181101Z AUTO VRB05KT 2 1/2SM -RA BR SCT003 OVC014 21/21 A2977 RMK AO2
                 P0000 T02110211 =
2018-08-18 06:53 METAR KAUG 181053Z AUTO VRB05KT 2 1/2SM -RA BR BKN003 OVC014 21/21 A2977 RMK AO2
                 RAB51 CIG 003V007 SLP081 P0000 T02110211 =
2018-08-18 05:53 METAR KAUG 180953Z AUTO 20005KT 2SM BR OVC002 21/21 A2977 RMK AO2 SLP081
                 T02110211 =
2018-08-18 05:40 METAR KAUG 180940Z AUTO VRB05KT 2 1/2SM BR OVC003 22/21 A2978 RMK AO2 T02170211
                 =
2018-08-18 04:53 METAR KAUG 180853Z AUTO 18005KT 3SM BR OVC003 22/21 A2977 RMK AO2 SLP078 60001
                 T02170211 56019 =
2018-08-18 04:37 METAR KAUG 180837Z AUTO VRB03KT 3SM BR OVC003 22/21 A2977 RMK AO2 T02170211 =
2018-08-18 04:14 METAR KAUG 180814Z AUTO 21005KT 2 1/2SM BR OVC003 22/21 A2978 RMK AO2 T02170211
                 =
2018-08-18 03:53 METAR KAUG 180753Z AUTO 19004KT 3SM BR OVC003 22/21 A2979 RMK AO2 SLP086
                 T02170211 =
2018-08-18 03:27 METAR KAUG 180727Z AUTO 18005KT 3SM BR OVC002 22/21 A2979 RMK AO2 T02170211 =
2018-08-18 03:00 METAR KAUG 180700Z AUTO 19005KT 2 1/2SM BR OVC002 21/21 A2979 RMK AO2 T02110211
                 =
2018-08-18 02:53 METAR KAUG 180653Z AUTO 22004KT 3SM BR OVC003 21/21 A2980 RMK AO2 RAE19 SLP089
                 P0001 T02110211 =
2018-08-18 02:17 METAR KAUG 180617Z AUTO 17005KT 3SM -RA BR OVC002 21/21 A2981 RMK AO2 P0001
                 T02110211 =
2018-08-18 01:49 METAR KAUG 180549Z AUTO 17005KT 1 3/4SM -RA BR OVC002 21/21 A2982 RMK AO2 RAB01
                 SLP098 P0001 60045 T02060206 10206 20200 58031 =
2018-08-18 01:48 METAR KAUG 180548Z AUTO 17005KT 1 3/4SM -RA BR OVC002 21/21 A2983 RMK AO2 RAB01
                 P0001 =
2018-08-18 00:53 METAR KAUG 180453Z AUTO 16005KT 6SM BR BKN002 OVC007 21/20 A2987 RMK AO2 RAE47
                 SLP112 P0000 T02060200 402610128 =
2018-08-18 00:37 METAR KAUG 180437Z AUTO 18003KT 8SM -RA BKN004 BKN009 OVC025 21/20 A2988 RMK AO2
                 LTG DSNT E CIG 003V007 P0000 T02060200 =
2018-08-18 00:32 METAR KAUG 180432Z AUTO 18005KT 8SM -RA SCT006 BKN020 OVC025 21/20 A2988 RMK AO2
                 LTG DSNT E P0000 T02060200 =
2018-08-18 00:14 METAR KAUG 180414Z AUTO 16007KT 8SM -RA SCT013 BKN025 BKN047 20/20 A2988 RMK AO2
                 LTG DSNT E P0000 T02000200 =
2018-08-17 23:53 METAR KAUG 180353Z AUTO 16007KT 5SM -RA BR BKN043 BKN070 BKN110 20/20 A2989 RMK
                 AO2 LTG DSNT NE-S RAB14 TSB05E45 SLP121 P0044 T02000200 =
2018-08-17 23:45 METAR KAUG 180345Z AUTO 17005KT 3SM -RA BR FEW004 BKN035 BKN070 20/20 A2989 RMK
                 AO2 LTG DSNT NE-S RAB14 TSB05E45 P0044 T02000200 =
2018-08-17 23:35 METAR KAUG 180335Z AUTO VRB06KT 3SM -TSRA BR SCT006 BKN023 BKN070 20/20 A2989
                 RMK AO2 LTG DSNT NE-S RAB14 TSB05 P0043 T02000200 =
2018-08-17 23:30 METAR KAUG 180330Z AUTO 13006KT 1 1/4SM TSRA BR SCT006 BKN028 OVC110 20/20 A2989
                 RMK AO2 LTG DSNT NE AND S RAB14 TSB05 P0043 T02000200 =
2018-08-17 23:26 METAR KAUG 180326Z AUTO 14008KT 3/4SM +TSRA BR BKN006 OVC026 20/20 A2990 RMK AO2
                 LTG DSNT S RAB14 TSB05 P0041 T02000200 =
2018-08-17 23:15 METAR KAUG 180315Z AUTO VRB05G18KT 1 3/4SM -TSRA BR OVC006 21/19 A2992 RMK AO2
                 LTG DSNT S-W RAB14 TSB05 P0018 T02060194 =
2018-08-17 23:11 METAR KAUG 180311Z AUTO 28012G18KT 10SM TS OVC006 21/19 A2995 RMK AO2 LTG DSNT
                 S-W TSB05 CIG 005V009 PRESRR T02060194 =
2018-08-17 23:02 METAR KAUG 180302Z AUTO 17006KT 10SM VCTS OVC006 21/19 A2992 RMK AO2 LTG DSNT SW
                 AND W CIG 005V010 T02060194 =
2018-08-17 22:53 METAR KAUG 180253Z AUTO 16007KT 10SM BKN008 OVC022 21/19 A2992 RMK AO2 LTG DSNT
                 SW AND W CIG 006V010 SLP130 T02060189 58018 =
2018-08-17 22:08 METAR KAUG 180208Z AUTO 15006KT 10SM SCT009 OVC027 21/19 A2994 RMK AO2 T02060189
                 =
2018-08-17 21:53 METAR KAUG 180153Z AUTO 15006KT 10SM BKN009 OVC027 21/19 A2995 RMK AO2 CIG
                 007V012 SLP142 T02060189 =
2018-08-17 21:50 METAR KAUG 180150Z AUTO 15006KT 10SM BKN009 BKN027 OVC070 21/19 A2995 RMK AO2
                 CIG 007V012 =
2018-08-17 20:53 METAR KAUG 180053Z AUTO 17007KT 10SM OVC011 21/18 A2997 RMK AO2 SLP149 T02060183
                 =
2018-08-17 19:53 METAR KAUG 172353Z AUTO 16006KT 10SM BKN012 BKN120 21/17 A2997 RMK AO2 SLP146
                 T02060167 10261 20206 56017 =
2018-08-17 18:53 METAR KAUG 172253Z AUTO 16008KT 10SM FEW120 21/14 A2998 RMK AO2 SLP150 T02110139
                 =
2018-08-17 17:53 METAR KAUG 172153Z AUTO 18008KT 150V220 10SM CLR 22/14 A3000 RMK AO2 SLP159
                 T02220139 =
2018-08-17 16:53 METAR KAUG 172053Z AUTO 17010KT 10SM CLR 23/14 A3001 RMK AO2 SLP163 T02280139
                 56014 =
2018-08-17 15:53 METAR KAUG 171953Z AUTO 17005KT 10SM CLR 24/15 A3002 RMK AO2 SLP167 T02390150 =

Support USWX by starting your Amazon purchase here.